Time;durP1;ratioP1;P1;durP2;ratioP2;P2;SDS_P1;SDS_P2;PMS_P1;PMS_P2;Temp;Humidity;BMP_temperature;BMP_pressure;BME280_temperature;BME280_humidity;BME280_pressure;Samples;Min_cycle;Max_cycle;Signal;HPM_P1;HPM_P2
2023/03/08 00:01:14;;;;;;;9.70;6.77;;;;;;;;;;5111394;27;20605;-73
2023/03/08 00:03:41;;;;;;;11.50;7.63;;;;;;;;;;5111285;28;20647;-73
2023/03/08 00:06:09;;;;;;;9.73;6.97;;;;;;;;;;5112002;28;20657;-73
2023/03/08 00:08:36;;;;;;;9.20;6.80;;;;;;;;;;5111062;28;20227;-73
2023/03/08 00:11:05;;;;;;;11.37;7.30;;;;;;;;;;5111911;28;20224;-73
2023/03/08 00:13:32;;;;;;;9.40;6.47;;;;;;;;;;5111066;28;20289;-73
2023/03/08 00:16:02;;;;;;;10.17;7.00;;;;;;;;;;5111393;28;20301;-73
2023/03/08 00:18:29;;;;;;;10.13;6.83;;;;;;;;;;5111408;28;20221;-73
2023/03/08 00:20:59;;;;;;;9.50;7.13;;;;;;;;;;5111957;28;20289;-73
2023/03/08 00:23:27;;;;;;;11.20;7.30;;;;;;;;;;5111151;28;20649;-73
2023/03/08 00:25:54;;;;;;;8.23;6.50;;;;;;;;;;5111187;28;20280;-73
2023/03/08 00:28:21;;;;;;;9.90;7.27;;;;;;;;;;5111994;28;20288;-73
2023/03/08 00:30:55;;;;;;;11.43;7.43;;;;;;;;;;5111400;28;20279;-72
2023/03/08 00:33:24;;;;;;;10.70;6.93;;;;;;;;;;5111429;28;20285;-73
2023/03/08 00:35:58;;;;;;;10.50;6.67;;;;;;;;;;5110821;28;20289;-73
2023/03/08 00:38:25;;;;;;;9.87;7.07;;;;;;;;;;5110820;28;20229;-73
2023/03/08 00:40:52;;;;;;;10.03;6.87;;;;;;;;;;5111804;28;20324;-73
2023/03/08 00:43:20;;;;;;;9.13;6.23;;;;;;;;;;5111187;28;20318;-73
2023/03/08 00:45:47;;;;;;;10.33;7.47;;;;;;;;;;5110944;28;20323;-73
2023/03/08 00:48:15;;;;;;;10.20;7.63;;;;;;;;;;5110896;28;20257;-74
2023/03/08 00:50:43;;;;;;;10.20;8.00;;;;;;;;;;5111107;28;20218;-73
2023/03/08 00:53:11;;;;;;;11.80;7.97;;;;;;;;;;5111267;28;20221;-73
2023/03/08 00:55:38;;;;;;;10.43;7.77;;;;;;;;;;5111386;28;20290;-74
2023/03/08 00:58:05;;;;;;;10.67;7.57;;;;;;;;;;5110757;28;20239;-73
2023/03/08 01:00:33;;;;;;;9.43;7.70;;;;;;;;;;5111273;28;20220;-73
2023/03/08 01:03:00;;;;;;;11.67;7.80;;;;;;;;;;5111221;28;20224;-73
2023/03/08 01:05:27;;;;;;;8.60;6.90;;;;;;;;;;5110741;28;20284;-74
2023/03/08 01:07:55;;;;;;;11.97;7.47;;;;;;;;;;5111130;28;20323;-73
2023/03/08 01:10:23;;;;;;;9.07;7.00;;;;;;;;;;5111458;28;20284;-73
2023/03/08 01:12:50;;;;;;;9.23;6.80;;;;;;;;;;5112633;28;20230;-72
2023/03/08 01:15:17;;;;;;;9.80;6.77;;;;;;;;;;5114829;28;20217;-73
2023/03/08 01:17:44;;;;;;;9.47;6.70;;;;;;;;;;5114881;28;20284;-73
2023/03/08 01:20:12;;;;;;;8.43;6.40;;;;;;;;;;5114318;28;20294;-74
2023/03/08 01:22:39;;;;;;;7.50;5.93;;;;;;;;;;5114512;28;20654;-73
2023/03/08 01:25:08;;;;;;;7.10;5.90;;;;;;;;;;5114352;28;20229;-74
2023/03/08 01:27:35;;;;;;;7.63;5.77;;;;;;;;;;5114464;28;20264;-73
2023/03/08 01:30:03;;;;;;;7.47;5.43;;;;;;;;;;5114397;28;20726;-73
2023/03/08 01:32:30;;;;;;;7.57;5.30;;;;;;;;;;5113971;28;20228;-73
2023/03/08 01:35:02;;;;;;;7.83;5.90;;;;;;;;;;5114316;28;20327;-73
2023/03/08 01:37:29;;;;;;;6.67;5.33;;;;;;;;;;5114384;28;20228;-73
2023/03/08 01:39:56;;;;;;;5.30;3.60;;;;;;;;;;5113934;28;20645;-73
2023/03/08 01:42:25;;;;;;;8.33;5.00;;;;;;;;;;5114091;28;20228;-73
2023/03/08 01:44:53;;;;;;;6.30;4.57;;;;;;;;;;5113832;28;20265;-73
2023/03/08 01:47:21;;;;;;;5.03;4.10;;;;;;;;;;5114245;28;20272;-73
2023/03/08 01:49:49;;;;;;;6.63;4.30;;;;;;;;;;5113493;28;20668;-73
2023/03/08 01:52:18;;;;;;;7.00;4.37;;;;;;;;;;5113999;28;20815;-73
2023/03/08 01:54:47;;;;;;;5.00;4.10;;;;;;;;;;5114188;28;20208;-73
2023/03/08 01:57:17;;;;;;;4.63;3.60;;;;;;;;;;5113414;27;20204;-73
2023/03/08 01:59:47;;;;;;;6.07;3.60;;;;;;;;;;5113905;28;20239;-73
2023/03/08 02:02:14;;;;;;;4.33;3.40;;;;;;;;;;5113871;28;20230;-73
2023/03/08 02:04:42;;;;;;;4.70;3.43;;;;;;;;;;5113317;28;20285;-74
2023/03/08 02:07:09;;;;;;;4.70;3.30;;;;;;;;;;5108271;28;20217;-74
2023/03/08 02:09:36;;;;;;;4.50;3.20;;;;;;;;;;5104695;28;20233;-73
2023/03/08 02:12:07;;;;;;;4.27;3.07;;;;;;;;;;5113058;28;20285;-73
2023/03/08 02:14:35;;;;;;;4.53;3.43;;;;;;;;;;5113383;28;20280;-74
2023/03/08 02:17:04;;;;;;;3.60;3.20;;;;;;;;;;5113992;28;20703;-73
2023/03/08 02:19:34;;;;;;;3.27;2.63;;;;;;;;;;5112729;28;20215;-75
2023/03/08 02:22:07;;;;;;;4.97;2.70;;;;;;;;;;5113600;28;20626;-73
2023/03/08 02:24:36;;;;;;;2.70;2.03;;;;;;;;;;5112942;28;20222;-74
2023/03/08 02:27:06;;;;;;;3.13;2.47;;;;;;;;;;5112984;28;20666;-74
2023/03/08 02:29:33;;;;;;;3.00;2.47;;;;;;;;;;5113224;28;20291;-72
2023/03/08 02:32:00;;;;;;;2.93;2.40;;;;;;;;;;5112936;28;20284;-74
2023/03/08 02:34:27;;;;;;;2.43;1.97;;;;;;;;;;5113333;28;20217;-74
2023/03/08 02:36:54;;;;;;;2.40;1.70;;;;;;;;;;5113065;28;20293;-74
2023/03/08 02:39:22;;;;;;;3.23;2.10;;;;;;;;;;5113553;28;20285;-74
2023/03/08 02:41:50;;;;;;;2.63;1.70;;;;;;;;;;5112890;28;20293;-74
2023/03/08 02:44:17;;;;;;;2.60;1.90;;;;;;;;;;5113128;28;20916;-73
2023/03/08 02:46:44;;;;;;;3.10;1.70;;;;;;;;;;5112071;28;20304;-74
2023/03/08 02:49:12;;;;;;;1.33;1.23;;;;;;;;;;5112800;28;20288;-74
2023/03/08 02:51:39;;;;;;;1.53;1.27;;;;;;;;;;5113005;28;20233;-74
2023/03/08 02:54:06;;;;;;;3.70;1.30;;;;;;;;;;5112795;28;20303;-74
2023/03/08 02:56:33;;;;;;;1.80;1.30;;;;;;;;;;5112515;28;20246;-74
2023/03/08 02:59:02;;;;;;;2.57;1.10;;;;;;;;;;5112979;28;20280;-74
2023/03/08 03:01:29;;;;;;;2.23;0.83;;;;;;;;;;5112299;28;20229;-73
2023/03/08 03:03:56;;;;;;;2.63;0.80;;;;;;;;;;5112663;28;20221;-74
2023/03/08 03:06:23;;;;;;;2.63;0.80;;;;;;;;;;5112994;28;20293;-75
2023/03/08 03:08:50;;;;;;;1.30;0.90;;;;;;;;;;5112355;28;20327;-73
2023/03/08 03:11:18;;;;;;;0.90;0.60;;;;;;;;;;5112686;28;20221;-74
2023/03/08 03:13:46;;;;;;;2.43;0.70;;;;;;;;;;5111916;28;20301;-75
2023/03/08 03:16:15;;;;;;;1.20;0.60;;;;;;;;;;5112367;27;20285;-74
2023/03/08 03:18:43;;;;;;;1.30;0.80;;;;;;;;;;5112200;28;20293;-74
2023/03/08 03:21:11;;;;;;;2.90;1.10;;;;;;;;;;5112655;28;20229;-74
2023/03/08 03:23:39;;;;;;;2.00;0.97;;;;;;;;;;5112225;28;20288;-74
2023/03/08 03:26:06;;;;;;;1.40;0.73;;;;;;;;;;5112074;28;20224;-74
2023/03/08 03:28:34;;;;;;;2.70;0.90;;;;;;;;;;5112183;28;20717;-74
2023/03/08 03:31:01;;;;;;;1.83;0.90;;;;;;;;;;5111698;28;20247;-74
2023/03/08 03:33:29;;;;;;;1.40;0.90;;;;;;;;;;5112110;28;20202;-73
2023/03/08 03:35:57;;;;;;;1.70;1.00;;;;;;;;;;5111903;28;20289;-74
2023/03/08 03:38:24;;;;;;;4.23;1.07;;;;;;;;;;5112205;28;20232;-75
2023/03/08 03:40:51;;;;;;;4.00;1.00;;;;;;;;;;5112025;28;20301;-75
2023/03/08 03:43:18;;;;;;;3.77;1.17;;;;;;;;;;5111816;27;20242;-74
2023/03/08 03:45:45;;;;;;;3.90;1.00;;;;;;;;;;5111106;28;20272;-73
2023/03/08 03:48:15;;;;;;;4.20;1.50;;;;;;;;;;5112005;28;20320;-74
2023/03/08 03:50:43;;;;;;;4.93;0.90;;;;;;;;;;5111612;28;20198;-73
2023/03/08 03:53:10;;;;;;;4.57;1.00;;;;;;;;;;5111922;28;20236;-73
2023/03/08 03:55:38;;;;;;;4.57;1.43;;;;;;;;;;5111907;28;20194;-74
2023/03/08 03:58:05;;;;;;;5.00;1.00;;;;;;;;;;5111838;28;20288;-75
2023/03/08 04:00:32;;;;;;;3.60;0.83;;;;;;;;;;5111360;28;20276;-74
2023/03/08 04:02:59;;;;;;;6.37;1.20;;;;;;;;;;5111821;28;20281;-74
2023/03/08 04:05:26;;;;;;;6.93;1.20;;;;;;;;;;5111890;28;20186;-75
2023/03/08 04:07:55;;;;;;;9.40;1.33;;;;;;;;;;5112047;28;20341;-74
2023/03/08 04:10:22;;;;;;;6.77;1.10;;;;;;;;;;5111747;28;20239;-74
2023/03/08 04:12:49;;;;;;;5.27;1.20;;;;;;;;;;5111561;28;20319;-74
2023/03/08 04:15:16;;;;;;;8.30;1.17;;;;;;;;;;5111649;28;20284;-73
2023/03/08 04:17:44;;;;;;;7.07;1.40;;;;;;;;;;5111610;28;20225;-74
2023/03/08 04:20:13;;;;;;;7.70;1.60;;;;;;;;;;5111304;28;20902;-74
2023/03/08 04:22:40;;;;;;;11.50;1.70;;;;;;;;;;5111887;28;20194;-74
2023/03/08 04:25:09;;;;;;;9.43;2.03;;;;;;;;;;5111323;28;20293;-74
2023/03/08 04:27:36;;;;;;;8.63;1.80;;;;;;;;;;5111503;28;20264;-74
2023/03/08 04:30:04;;;;;;;14.60;1.80;;;;;;;;;;5111369;28;20280;-74
2023/03/08 04:32:31;;;;;;;11.20;2.07;;;;;;;;;;5111565;28;20280;-74
2023/03/08 04:34:59;;;;;;;16.60;2.10;;;;;;;;;;5111477;28;20243;-74
2023/03/08 04:37:26;;;;;;;14.30;2.07;;;;;;;;;;5111381;28;20202;-74
2023/03/08 04:39:53;;;;;;;10.93;1.60;;;;;;;;;;5111643;28;20715;-74
2023/03/08 04:42:22;;;;;;;9.13;2.20;;;;;;;;;;5111029;28;20221;-73
2023/03/08 04:44:49;;;;;;;9.23;1.80;;;;;;;;;;5111549;28;20740;-74
2023/03/08 04:47:16;;;;;;;13.57;2.27;;;;;;;;;;5112054;28;20200;-74
2023/03/08 04:49:43;;;;;;;11.90;1.97;;;;;;;;;;5114851;28;20194;-74
2023/03/08 04:52:11;;;;;;;10.30;2.53;;;;;;;;;;5115379;28;20228;-74
2023/03/08 04:54:38;;;;;;;10.03;2.50;;;;;;;;;;5114879;28;20733;-73
2023/03/08 04:57:05;;;;;;;18.53;2.30;;;;;;;;;;5114739;28;20277;-74
2023/03/08 04:59:34;;;;;;;14.60;2.30;;;;;;;;;;5114872;28;20574;-74
2023/03/08 05:02:01;;;;;;;18.10;3.07;;;;;;;;;;5114889;28;20232;-73
2023/03/08 05:04:28;;;;;;;16.90;2.43;;;;;;;;;;5115231;28;20288;-74
2023/03/08 05:06:55;;;;;;;12.57;2.37;;;;;;;;;;5114594;28;20236;-74
2023/03/08 05:09:22;;;;;;;14.93;3.17;;;;;;;;;;5114432;28;20774;-73
2023/03/08 05:11:50;;;;;;;15.10;2.73;;;;;;;;;;5114737;27;20240;-75
2023/03/08 05:14:17;;;;;;;15.20;3.20;;;;;;;;;;5114921;28;20285;-74
2023/03/08 05:16:45;;;;;;;17.57;2.70;;;;;;;;;;5114775;28;20245;-74
2023/03/08 05:19:12;;;;;;;15.77;2.33;;;;;;;;;;5114722;28;20281;-74
2023/03/08 05:21:40;;;;;;;20.20;3.20;;;;;;;;;;5114754;28;20229;-74
2023/03/08 05:24:07;;;;;;;15.07;3.17;;;;;;;;;;5114171;27;20284;-74
2023/03/08 05:26:34;;;;;;;19.13;2.80;;;;;;;;;;5113834;28;20757;-74
2023/03/08 05:29:02;;;;;;;21.13;3.70;;;;;;;;;;5114539;28;20312;-74
2023/03/08 05:31:29;;;;;;;20.10;2.80;;;;;;;;;;5114412;28;20300;-75
2023/03/08 05:33:58;;;;;;;18.93;3.10;;;;;;;;;;5107487;28;20293;-74
2023/03/08 05:36:25;;;;;;;16.43;3.33;;;;;;;;;;5114534;28;20221;-75
2023/03/08 05:38:54;;;;;;;17.63;3.13;;;;;;;;;;5114430;28;20293;-74
2023/03/08 05:41:21;;;;;;;19.07;3.13;;;;;;;;;;5114198;28;20190;-74
2023/03/08 05:43:48;;;;;;;24.97;3.63;;;;;;;;;;5113917;28;20280;-75
2023/03/08 05:46:16;;;;;;;18.80;2.90;;;;;;;;;;5114180;27;20317;-74
2023/03/08 05:48:44;;;;;;;19.53;3.27;;;;;;;;;;5113880;28;20260;-74
2023/03/08 05:51:14;;;;;;;17.13;2.90;;;;;;;;;;5113953;28;20620;-74
2023/03/08 05:53:41;;;;;;;16.30;3.37;;;;;;;;;;5114101;28;20284;-74
2023/03/08 05:56:09;;;;;;;18.43;3.07;;;;;;;;;;5114059;27;20626;-73
2023/03/08 05:58:36;;;;;;;21.50;3.23;;;;;;;;;;5113485;28;20204;-74
2023/03/08 06:01:09;;;;;;;17.47;3.10;;;;;;;;;;5113778;28;20284;-74
2023/03/08 06:03:36;;;;;;;14.20;3.37;;;;;;;;;;5113987;28;20198;-74
2023/03/08 06:06:03;;;;;;;16.93;2.90;;;;;;;;;;5113849;28;20284;-75
2023/03/08 06:08:32;;;;;;;19.47;3.07;;;;;;;;;;5113294;28;20328;-75
2023/03/08 06:10:59;;;;;;;14.37;3.40;;;;;;;;;;5113804;28;20284;-75
2023/03/08 06:13:26;;;;;;;20.37;3.70;;;;;;;;;;5113428;28;20367;-75
2023/03/08 06:15:54;;;;;;;18.37;3.70;;;;;;;;;;5113612;28;20229;-74
2023/03/08 06:18:22;;;;;;;21.97;3.93;;;;;;;;;;5113735;28;20571;-75
2023/03/08 06:20:56;;;;;;;17.87;3.83;;;;;;;;;;5113654;28;20221;-75
2023/03/08 06:23:24;;;;;;;12.87;3.27;;;;;;;;;;5113626;27;20211;-74
2023/03/08 06:25:52;;;;;;;16.93;3.53;;;;;;;;;;5104715;28;20302;-74
2023/03/08 06:28:19;;;;;;;17.40;3.83;;;;;;;;;;5101328;28;20252;-75
2023/03/08 06:30:49;;;;;;;21.67;3.80;;;;;;;;;;5101704;28;20742;-76
2023/03/08 06:33:16;;;;;;;15.97;3.43;;;;;;;;;;5092916;28;20206;-74
2023/03/08 06:35:43;;;;;;;19.63;3.77;;;;;;;;;;5093042;28;20589;-75
2023/03/08 06:38:11;;;;;;;19.67;3.90;;;;;;;;;;5111179;28;20300;-74
2023/03/08 06:40:38;;;;;;;19.40;3.37;;;;;;;;;;5112924;28;20198;-74
2023/03/08 06:43:07;;;;;;;16.73;3.43;;;;;;;;;;5111146;28;20221;-75
2023/03/08 06:45:34;;;;;;;21.67;3.87;;;;;;;;;;5112304;28;20252;-75
2023/03/08 06:48:01;;;;;;;21.30;3.67;;;;;;;;;;5094579;28;20202;-74
2023/03/08 06:50:28;;;;;;;19.67;3.67;;;;;;;;;;5102786;27;20310;-75
2023/03/08 06:52:55;;;;;;;15.00;3.47;;;;;;;;;;5111009;28;20285;-74
2023/03/08 06:55:23;;;;;;;16.60;3.50;;;;;;;;;;5106917;28;20241;-74
2023/03/08 06:57:50;;;;;;;14.60;2.90;;;;;;;;;;5111192;28;20190;-74
2023/03/08 07:00:19;;;;;;;13.90;3.07;;;;;;;;;;5108031;28;20284;-74
2023/03/08 07:02:47;;;;;;;15.40;3.70;;;;;;;;;;5111290;28;20288;-74
2023/03/08 07:05:15;;;;;;;16.97;3.27;;;;;;;;;;5107469;28;20201;-75
2023/03/08 07:07:42;;;;;;;20.30;3.23;;;;;;;;;;5110300;28;20194;-74
2023/03/08 07:10:11;;;;;;;14.57;3.00;;;;;;;;;;5110636;28;20324;-75
2023/03/08 07:12:42;;;;;;;14.27;2.97;;;;;;;;;;5102111;28;20217;-74
2023/03/08 07:15:10;;;;;;;17.90;3.67;;;;;;;;;;5112131;28;20217;-73
2023/03/08 07:17:39;;;;;;;16.47;3.70;;;;;;;;;;5112484;28;20285;-76
2023/03/08 07:20:06;;;;;;;14.47;3.20;;;;;;;;;;5112722;27;20209;-76
2023/03/08 07:22:33;;;;;;;14.47;3.57;;;;;;;;;;5111825;28;20284;-75
2023/03/08 07:25:01;;;;;;;14.60;3.60;;;;;;;;;;5112133;28;20714;-76
2023/03/08 07:27:28;;;;;;;12.00;2.77;;;;;;;;;;5111907;28;20958;-76
2023/03/08 07:29:55;;;;;;;15.77;3.10;;;;;;;;;;5111893;28;20321;-75
2023/03/08 07:32:27;;;;;;;11.47;3.10;;;;;;;;;;5112426;28;20209;-75
2023/03/08 07:34:56;;;;;;;8.43;2.73;;;;;;;;;;5112044;28;20334;-75
2023/03/08 07:37:23;;;;;;;9.90;2.53;;;;;;;;;;5110946;28;20293;-76
2023/03/08 07:39:50;;;;;;;11.40;2.23;;;;;;;;;;5105409;28;20604;-75
2023/03/08 07:42:17;;;;;;;10.37;2.20;;;;;;;;;;5109449;28;20233;-75
2023/03/08 07:44:45;;;;;;;6.77;2.03;;;;;;;;;;5111371;28;20349;-76
2023/03/08 07:47:12;;;;;;;7.80;2.00;;;;;;;;;;5111248;28;20292;-75
2023/03/08 07:49:39;;;;;;;7.43;1.77;;;;;;;;;;5111561;28;20257;-76
2023/03/08 07:52:08;;;;;;;11.53;2.17;;;;;;;;;;5110923;28;20724;-75
2023/03/08 07:54:35;;;;;;;7.70;1.90;;;;;;;;;;5111669;28;20248;-76
2023/03/08 07:57:02;;;;;;;13.50;2.63;;;;;;;;;;5111656;28;20285;-75
2023/03/08 07:59:30;;;;;;;7.30;1.73;;;;;;;;;;5108903;28;20190;-76
2023/03/08 08:01:57;;;;;;;8.90;2.40;;;;;;;;;;5110129;28;20197;-75
2023/03/08 08:04:24;;;;;;;6.90;2.17;;;;;;;;;;5110957;28;20285;-77
2023/03/08 08:06:51;;;;;;;9.17;2.83;;;;;;;;;;5111420;28;20626;-76
2023/03/08 08:09:20;;;;;;;8.17;2.53;;;;;;;;;;5111018;28;20260;-76
2023/03/08 08:11:47;;;;;;;7.87;2.60;;;;;;;;;;5110931;28;20288;-75
2023/03/08 08:14:14;;;;;;;7.60;2.23;;;;;;;;;;5110172;28;20619;-76
2023/03/08 08:16:41;;;;;;;8.33;2.30;;;;;;;;;;5095223;28;20281;-75
2023/03/08 08:19:11;;;;;;;8.20;2.20;;;;;;;;;;5090726;28;20198;-75
2023/03/08 08:21:38;;;;;;;8.90;2.03;;;;;;;;;;5102428;28;20197;-75
2023/03/08 08:24:06;;;;;;;8.93;2.17;;;;;;;;;;5114897;28;20221;-76
2023/03/08 08:26:34;;;;;;;9.57;2.40;;;;;;;;;;5114882;28;20729;-75
2023/03/08 08:29:02;;;;;;;9.13;2.60;;;;;;;;;;5115067;28;20252;-76
2023/03/08 08:31:29;;;;;;;7.60;2.80;;;;;;;;;;5115580;28;20193;-75
2023/03/08 08:33:57;;;;;;;9.17;2.40;;;;;;;;;;5115608;28;20240;-75
2023/03/08 08:36:24;;;;;;;9.07;2.10;;;;;;;;;;5115015;28;20288;-76
2023/03/08 08:38:52;;;;;;;7.33;2.20;;;;;;;;;;5115353;28;20243;-76
2023/03/08 08:41:20;;;;;;;6.33;1.83;;;;;;;;;;5115310;28;20280;-76
2023/03/08 08:43:49;;;;;;;9.13;2.70;;;;;;;;;;5115077;28;20290;-76
2023/03/08 08:46:17;;;;;;;6.97;2.30;;;;;;;;;;5115169;28;20274;-75
2023/03/08 08:48:44;;;;;;;6.37;2.30;;;;;;;;;;5114875;28;20289;-76
2023/03/08 08:51:13;;;;;;;9.60;2.13;;;;;;;;;;5114859;28;20713;-75
2023/03/08 08:53:40;;;;;;;9.60;2.80;;;;;;;;;;5115076;27;20217;-76
2023/03/08 08:56:11;;;;;;;10.63;3.53;;;;;;;;;;5115088;28;20185;-76
2023/03/08 08:58:39;;;;;;;11.27;4.13;;;;;;;;;;5115261;28;20194;-76
2023/03/08 09:01:13;;;;;;;12.13;2.53;;;;;;;;;;5110470;28;20228;-75
2023/03/08 09:03:40;;;;;;;10.00;2.30;;;;;;;;;;5100905;28;20224;-75
2023/03/08 09:06:07;;;;;;;13.53;2.63;;;;;;;;;;5113403;28;20296;-75
2023/03/08 09:08:34;;;;;;;9.23;2.60;;;;;;;;;;5114367;28;20225;-75
2023/03/08 09:11:05;;;;;;;9.23;2.20;;;;;;;;;;5114506;28;20228;-75
2023/03/08 09:13:32;;;;;;;12.03;2.90;;;;;;;;;;5115022;28;20301;-75
2023/03/08 09:16:00;;;;;;;10.13;2.80;;;;;;;;;;5114154;28;20198;-75
2023/03/08 09:18:29;;;;;;;10.40;2.63;;;;;;;;;;5114101;28;20288;-75
2023/03/08 09:20:56;;;;;;;14.23;2.83;;;;;;;;;;5114487;28;20218;-75
2023/03/08 09:23:23;;;;;;;11.43;3.10;;;;;;;;;;5114493;28;20194;-76
2023/03/08 09:25:57;;;;;;;10.73;3.13;;;;;;;;;;5113417;28;20292;-75
2023/03/08 09:28:24;;;;;;;13.47;2.87;;;;;;;;;;5113357;28;20229;-75
2023/03/08 09:30:52;;;;;;;10.20;2.83;;;;;;;;;;5114005;28;20257;-75
2023/03/08 09:33:19;;;;;;;10.43;3.10;;;;;;;;;;5113713;28;20242;-75
2023/03/08 09:35:56;;;;;;;8.73;2.43;;;;;;;;;;5113780;28;20225;-75
2023/03/08 09:38:24;;;;;;;9.67;2.37;;;;;;;;;;5114114;28;20543;-75
2023/03/08 09:40:57;;;;;;;14.83;3.10;;;;;;;;;;5106323;28;20281;-76
2023/03/08 09:43:29;;;;;;;9.20;2.30;;;;;;;;;;5112416;28;20853;-75
2023/03/08 09:45:56;;;;;;;12.70;2.50;;;;;;;;;;5114255;28;20234;-75
2023/03/08 09:48:26;;;;;;;12.60;2.60;;;;;;;;;;5113605;28;20300;-75
2023/03/08 09:50:57;;;;;;;12.73;2.83;;;;;;;;;;5113878;28;20604;-74
2023/03/08 09:53:28;;;;;;;12.27;2.60;;;;;;;;;;5114165;28;20198;-75
2023/03/08 09:55:57;;;;;;;12.67;2.90;;;;;;;;;;5113643;28;20289;-75
2023/03/08 09:58:30;;;;;;;9.53;3.07;;;;;;;;;;5114125;28;20232;-75
2023/03/08 10:01:00;;;;;;;14.43;3.20;;;;;;;;;;5111656;28;20611;-74
2023/03/08 10:03:38;;;;;;;10.80;2.60;;;;;;;;;;5104397;28;20670;-74
2023/03/08 10:06:11;;;;;;;11.57;2.97;;;;;;;;;;5112195;28;20194;-74
2023/03/08 10:08:45;;;;;;;10.73;2.90;;;;;;;;;;5111784;28;20727;-74
2023/03/08 10:11:16;;;;;;;10.57;3.10;;;;;;;;;;5099314;28;20718;-75
2023/03/08 10:13:44;;;;;;;11.17;2.40;;;;;;;;;;5102562;28;20198;-74
2023/03/08 10:16:14;;;;;;;11.67;3.47;;;;;;;;;;5112675;28;20241;-75
2023/03/08 10:18:45;;;;;;;9.47;2.50;;;;;;;;;;5113345;28;20650;-75
2023/03/08 10:21:15;;;;;;;8.10;2.63;;;;;;;;;;5113360;27;20284;-75
2023/03/08 10:23:45;;;;;;;8.77;2.57;;;;;;;;;;5108372;28;20281;-75
2023/03/08 10:26:13;;;;;;;7.40;2.33;;;;;;;;;;5113147;28;20560;-74
2023/03/08 10:28:40;;;;;;;10.93;2.83;;;;;;;;;;5113220;28;20225;-75
2023/03/08 10:31:18;;;;;;;11.23;3.37;;;;;;;;;;5112771;28;20284;-74
2023/03/08 10:33:47;;;;;;;10.87;3.57;;;;;;;;;;5113398;28;20231;-75
2023/03/08 10:36:19;;;;;;;8.13;3.40;;;;;;;;;;5112790;28;20193;-75
2023/03/08 10:38:56;;;;;;;6.83;2.37;;;;;;;;;;5116965;27;20201;-75
2023/03/08 10:41:24;;;;;;;7.77;2.73;;;;;;;;;;5133594;27;20637;-75
2023/03/08 10:43:52;;;;;;;5.50;2.57;;;;;;;;;;5133513;27;20281;-75
2023/03/08 10:46:20;;;;;;;3.83;1.83;;;;;;;;;;5115235;27;20286;-75
2023/03/08 10:48:47;;;;;;;5.13;1.90;;;;;;;;;;5101536;28;20288;-75
2023/03/08 10:51:17;;;;;;;4.73;1.90;;;;;;;;;;5112899;28;20320;-75
2023/03/08 10:53:54;;;;;;;5.33;2.17;;;;;;;;;;5112689;28;20683;-76
2023/03/08 10:56:24;;;;;;;4.53;2.00;;;;;;;;;;5113523;27;20233;-75
2023/03/08 10:58:55;;;;;;;6.77;2.70;;;;;;;;;;5110000;27;20202;-75
2023/03/08 11:01:27;;;;;;;7.00;2.80;;;;;;;;;;5104372;28;20202;-76
2023/03/08 11:04:04;;;;;;;9.00;2.97;;;;;;;;;;5101426;28;20306;-75
2023/03/08 11:06:32;;;;;;;7.47;3.17;;;;;;;;;;5092087;28;20217;-76
2023/03/08 11:09:03;;;;;;;12.97;3.20;;;;;;;;;;5092342;28;20194;-75
2023/03/08 11:11:40;;;;;;;13.40;3.37;;;;;;;;;;5092017;28;20233;-74
2023/03/08 11:14:10;;;;;;;8.33;2.97;;;;;;;;;;5108971;27;20295;-75
2023/03/08 11:16:50;;;;;;;11.23;3.10;;;;;;;;;;5111998;28;20721;-75
2023/03/08 11:19:26;;;;;;;12.30;3.50;;;;;;;;;;5112471;28;20226;-75
2023/03/08 11:21:58;;;;;;;13.03;3.40;;;;;;;;;;5111970;28;20297;-75
2023/03/08 11:24:34;;;;;;;9.97;2.80;;;;;;;;;;5109703;27;20225;-75
2023/03/08 11:27:09;;;;;;;10.77;3.83;;;;;;;;;;5111973;28;20276;-74
2023/03/08 11:29:42;;;;;;;11.63;3.80;;;;;;;;;;5095349;28;20316;-74
2023/03/08 11:32:16;;;;;;;8.50;2.50;;;;;;;;;;5104237;28;20217;-74
2023/03/08 11:34:49;;;;;;;7.57;2.63;;;;;;;;;;5111881;28;20579;-75
2023/03/08 11:37:20;;;;;;;9.33;2.90;;;;;;;;;;5110117;28;20244;-74
2023/03/08 11:39:51;;;;;;;8.83;2.40;;;;;;;;;;5111926;28;20289;-75
2023/03/08 11:42:23;;;;;;;8.30;2.43;;;;;;;;;;5111970;28;20326;-74
2023/03/08 11:44:54;;;;;;;10.60;2.57;;;;;;;;;;5105218;28;20237;-75
2023/03/08 11:47:33;;;;;;;6.67;2.30;;;;;;;;;;5106934;27;20225;-78
2023/03/08 11:50:04;;;;;;;13.37;2.80;;;;;;;;;;5103634;28;20658;-76
2023/03/08 11:52:36;;;;;;;9.47;2.13;;;;;;;;;;5110206;28;20634;-76
2023/03/08 11:55:10;;;;;;;12.30;2.90;;;;;;;;;;5110692;28;20218;-76
2023/03/08 11:57:39;;;;;;;11.13;2.63;;;;;;;;;;5114592;27;20276;-75
2023/03/08 12:00:15;;;;;;;10.40;3.17;;;;;;;;;;5119253;28;20705;-76
2023/03/08 12:02:44;;;;;;;9.90;3.03;;;;;;;;;;5110817;28;20225;-76
2023/03/08 12:05:15;;;;;;;13.90;3.40;;;;;;;;;;5107307;28;20221;-75
2023/03/08 12:07:44;;;;;;;14.33;3.20;;;;;;;;;;5117925;27;20285;-76
2023/03/08 12:10:19;;;;;;;13.90;3.50;;;;;;;;;;5111256;28;20265;-77
2023/03/08 12:12:48;;;;;;;11.30;2.83;;;;;;;;;;5110740;28;20260;-77
2023/03/08 12:15:22;;;;;;;14.53;3.23;;;;;;;;;;5111111;28;20292;-77
2023/03/08 12:17:51;;;;;;;11.53;2.13;;;;;;;;;;5091107;28;20281;-76
2023/03/08 12:20:18;;;;;;;14.40;2.87;;;;;;;;;;5100892;28;20197;-76
2023/03/08 12:22:47;;;;;;;9.33;2.00;;;;;;;;;;5111256;28;20571;-75
2023/03/08 12:25:21;;;;;;;8.60;1.83;;;;;;;;;;5096973;28;20713;-77
2023/03/08 12:27:50;;;;;;;8.67;2.00;;;;;;;;;;5090578;28;20281;-77
2023/03/08 12:30:22;;;;;;;8.23;2.00;;;;;;;;;;5091020;28;20305;-75
2023/03/08 12:32:52;;;;;;;8.73;2.27;;;;;;;;;;5091029;28;20289;-76
2023/03/08 12:35:27;;;;;;;10.73;2.70;;;;;;;;;;5092310;28;20217;-75
2023/03/08 12:37:58;;;;;;;10.20;2.30;;;;;;;;;;5103825;28;20193;-76
2023/03/08 12:40:30;;;;;;;9.63;2.20;;;;;;;;;;5110604;28;20281;-75
2023/03/08 12:43:05;;;;;;;8.00;2.50;;;;;;;;;;5101610;28;20195;-75
2023/03/08 12:45:32;;;;;;;10.77;2.67;;;;;;;;;;5090339;28;20946;-75
2023/03/08 12:48:02;;;;;;;11.33;2.83;;;;;;;;;;5090287;28;20228;-75
2023/03/08 12:50:29;;;;;;;9.10;2.80;;;;;;;;;;5109819;28;20300;-75
2023/03/08 12:52:57;;;;;;;9.90;3.33;;;;;;;;;;5115070;28;20221;-75
2023/03/08 12:55:30;;;;;;;9.53;2.93;;;;;;;;;;5121843;28;20189;-77
2023/03/08 12:58:00;;;;;;;10.40;2.93;;;;;;;;;;5119438;28;20201;-75
2023/03/08 13:00:31;;;;;;;15.17;3.27;;;;;;;;;;5121574;28;20281;-75
2023/03/08 13:03:03;;;;;;;12.57;3.03;;;;;;;;;;5114518;28;20224;-76
2023/03/08 13:05:31;;;;;;;13.53;3.20;;;;;;;;;;5119628;28;20195;-76
2023/03/08 13:08:08;;;;;;;14.70;2.97;;;;;;;;;;5117694;27;20298;-75
2023/03/08 13:10:36;;;;;;;20.60;3.53;;;;;;;;;;5122928;27;20782;-76
2023/03/08 13:13:26;;;;;;;15.10;3.83;;;;;;;;;;5123127;27;20217;-76
2023/03/08 13:16:04;;;;;;;17.43;3.57;;;;;;;;;;5120978;27;20194;-76
2023/03/08 13:18:32;;;;;;;21.77;4.37;;;;;;;;;;5124241;27;20283;-77
2023/03/08 13:21:06;;;;;;;15.70;3.87;;;;;;;;;;5123584;27;20210;-77
2023/03/08 13:23:36;;;;;;;19.87;3.63;;;;;;;;;;5112525;27;20235;-77
2023/03/08 13:26:18;;;;;;;16.17;3.70;;;;;;;;;;5093902;28;20222;-76
2023/03/08 13:28:47;;;;;;;15.77;3.77;;;;;;;;;;5106934;27;20704;-77
2023/03/08 13:31:15;;;;;;;15.13;3.30;;;;;;;;;;5119636;27;20221;-75
2023/03/08 13:33:43;;;;;;;16.67;3.40;;;;;;;;;;5113345;28;20222;-75
2023/03/08 13:36:16;;;;;;;18.20;3.70;;;;;;;;;;5113727;28;20293;-75
2023/03/08 13:38:43;;;;;;;17.23;3.60;;;;;;;;;;5099967;28;20276;-75
2023/03/08 13:41:10;;;;;;;12.60;2.83;;;;;;;;;;5113979;28;20206;-75
2023/03/08 13:43:37;;;;;;;14.00;3.10;;;;;;;;;;5113731;28;20284;-75
2023/03/08 13:46:14;;;;;;;11.43;2.97;;;;;;;;;;5113892;28;20254;-76
2023/03/08 13:48:43;;;;;;;14.30;2.50;;;;;;;;;;5113523;28;20213;-75
2023/03/08 13:51:16;;;;;;;10.20;2.30;;;;;;;;;;5113587;28;20265;-76
2023/03/08 13:53:44;;;;;;;12.40;2.47;;;;;;;;;;5113717;28;20283;-75
2023/03/08 13:56:21;;;;;;;12.50;2.83;;;;;;;;;;5111434;28;20229;-75
2023/03/08 13:58:49;;;;;;;9.87;2.50;;;;;;;;;;5113365;28;20189;-75
2023/03/08 14:01:21;;;;;;;8.70;2.00;;;;;;;;;;5113361;28;20259;-76
2023/03/08 14:03:48;;;;;;;11.67;2.20;;;;;;;;;;5111504;28;20243;-76
2023/03/08 14:06:22;;;;;;;8.93;2.37;;;;;;;;;;5113349;28;20289;-75
2023/03/08 14:08:49;;;;;;;8.23;2.00;;;;;;;;;;5112907;28;20232;-75
2023/03/08 14:11:18;;;;;;;7.17;1.70;;;;;;;;;;5113373;28;20748;-75
2023/03/08 14:13:46;;;;;;;5.43;1.40;;;;;;;;;;5113368;28;20209;-75
2023/03/08 14:16:25;;;;;;;6.97;1.50;;;;;;;;;;5112758;28;20701;-75
2023/03/08 14:18:52;;;;;;;7.77;1.83;;;;;;;;;;5113372;28;20226;-74
2023/03/08 14:21:20;;;;;;;6.70;1.90;;;;;;;;;;5113365;27;20265;-74
2023/03/08 14:23:49;;;;;;;8.30;1.93;;;;;;;;;;5112932;28;20246;-75
2023/03/08 14:26:33;;;;;;;9.50;2.10;;;;;;;;;;5112991;28;20289;-76
2023/03/08 14:29:09;;;;;;;5.83;1.93;;;;;;;;;;5113377;28;20246;-75
2023/03/08 14:31:38;;;;;;;8.03;2.30;;;;;;;;;;5112965;27;20231;-76
2023/03/08 14:34:17;;;;;;;9.80;2.03;;;;;;;;;;5112938;28;20197;-75
2023/03/08 14:36:47;;;;;;;7.23;1.73;;;;;;;;;;5112845;27;20649;-75
2023/03/08 14:39:18;;;;;;;5.57;1.60;;;;;;;;;;5108938;28;20206;-75
2023/03/08 14:41:46;;;;;;;8.70;2.40;;;;;;;;;;5107831;28;20738;-76
2023/03/08 14:44:18;;;;;;;9.63;2.27;;;;;;;;;;5113176;28;20258;-75
2023/03/08 14:46:47;;;;;;;7.83;2.20;;;;;;;;;;5111648;28;20328;-74